Time;durP1;ratioP1;P1;durP2;ratioP2;P2;SDS_P1;SDS_P2;PMS_P1;PMS_P2;Temp;Humidity;BMP_temperature;BMP_pressure;BME280_temperature;BME280_humidity;BME280_pressure;Samples;Min_cycle;Max_cycle;Signal;HPM_P1;HPM_P2
2022/06/12 00:01:02;;;;;;;4.72;4.25;;;20.10;54.70;;;;;;5073074;28;20216;-88
2022/06/12 00:03:28;;;;;;;5.25;4.75;;;20.10;54.70;;;;;;5073088;28;20612;-88
2022/06/12 00:05:56;;;;;;;5.18;4.68;;;20.10;54.80;;;;;;5073297;28;20185;-87
2022/06/12 00:08:22;;;;;;;4.75;4.25;;;20.10;54.80;;;;;;5073523;28;20157;-87
2022/06/12 00:10:49;;;;;;;4.60;4.20;;;20.10;55.00;;;;;;5089966;28;20161;-88
2022/06/12 00:13:17;;;;;;;5.65;4.78;;;20.10;54.80;;;;;;5073037;28;20254;-88
2022/06/12 00:15:43;;;;;;;5.47;4.72;;;20.00;54.80;;;;;;5056461;28;20248;-87
2022/06/12 00:18:09;;;;;;;5.05;4.55;;;20.10;54.90;;;;;;5072884;28;20189;-88
2022/06/12 00:20:34;;;;;;;5.18;4.60;;;20.00;55.00;;;;;;5072641;28;20702;-88
2022/06/12 00:23:01;;;;;;;5.10;4.60;;;20.00;55.00;;;;;;5072902;28;20167;-88
2022/06/12 00:25:28;;;;;;;5.55;4.90;;;20.10;55.00;;;;;;5089958;28;20252;-88
2022/06/12 00:27:54;;;;;;;5.15;4.70;;;20.00;55.00;;;;;;5072815;28;20161;-87
2022/06/12 00:30:22;;;;;;;5.43;4.80;;;20.00;55.00;;;;;;5089063;28;20566;-87
2022/06/12 00:32:52;;;;;;;5.18;4.68;;;20.10;55.00;;;;;;5073090;28;20161;-88
2022/06/12 00:35:19;;;;;;;5.13;4.50;;;20.00;55.00;;;;;;5072999;28;20265;-87
2022/06/12 00:37:45;;;;;;;5.38;4.78;;;20.00;55.10;;;;;;5072844;28;20169;-87
2022/06/12 00:40:11;;;;;;;5.40;4.88;;;20.00;55.10;;;;;;5073553;28;20250;-88
2022/06/12 00:42:41;;;;;;;5.55;4.80;;;20.00;55.10;;;;;;5089333;28;20215;-88
2022/06/12 00:45:27;;;;;;;5.53;4.93;;;20.00;55.10;;;;;;5072713;28;20165;-88
2022/06/12 00:47:58;;;;;;;5.05;4.55;;;20.00;55.20;;;;;;5072421;28;20149;-87
2022/06/12 00:50:24;;;;;;;5.03;4.53;;;20.00;55.20;;;;;;5089458;28;20553;-88
2022/06/12 00:52:50;;;;;;;5.55;4.90;;;20.00;55.20;;;;;;5072258;28;20172;-87
2022/06/12 00:55:29;;;;;;;5.38;4.85;;;20.00;55.30;;;;;;5072379;28;20525;-87
2022/06/12 00:57:58;;;;;;;5.20;4.70;;;20.00;55.30;;;;;;5073474;28;20165;-88
2022/06/12 01:00:24;;;;;;;4.82;4.32;;;20.00;55.30;;;;;;5056099;28;20279;-88
2022/06/12 01:02:49;;;;;;;5.05;4.57;;;19.90;55.30;;;;;;5072684;28;20648;-87
2022/06/12 01:07:59;;;;;;;4.82;4.30;;;19.90;55.30;;;;;;5073047;28;20158;-88
2022/06/12 01:10:28;;;;;;;5.38;4.50;;;20.00;55.40;;;;;;5073529;28;20619;-87
2022/06/12 01:12:57;;;;;;;5.10;4.60;;;20.00;55.30;;;;;;5072354;28;20636;-88
2022/06/12 01:15:27;;;;;;;5.43;4.90;;;20.00;55.40;;;;;;5072796;28;20568;-88
2022/06/12 01:17:53;;;;;;;5.22;4.70;;;20.00;56.00;;;;;;5089431;28;20192;-88
2022/06/12 01:20:21;;;;;;;6.25;4.60;;;20.00;55.40;;;;;;5088828;28;20631;-88
2022/06/12 01:23:14;;;;;;;4.93;4.35;;;19.90;55.30;;;;;;5089209;28;20160;-88
2022/06/12 01:26:01;;;;;;;4.50;4.10;;;20.00;55.40;;;;;;5072153;28;20157;-88
2022/06/12 01:28:35;;;;;;;5.35;4.78;;;19.90;55.40;;;;;;5055408;28;20165;-88
2022/06/12 01:31:14;;;;;;;5.05;4.50;;;19.90;55.40;;;;;;5055871;28;20543;-88
2022/06/12 01:34:04;;;;;;;5.20;4.70;;;19.80;55.40;;;;;;5072392;28;20211;-88
2022/06/12 01:37:04;;;;;;;5.38;4.70;;;19.90;55.50;;;;;;5090946;28;20153;-88
2022/06/12 01:39:55;;;;;;;5.43;4.68;;;19.90;55.50;;;;;;5071952;28;20600;-88
2022/06/12 01:42:54;;;;;;;4.88;4.18;;;19.90;55.50;;;;;;5060566;28;20169;-88
2022/06/12 01:45:55;;;;;;;5.18;4.68;;;19.90;55.50;;;;;;5076485;28;20561;-88
2022/06/12 01:48:29;;;;;;;5.25;4.63;;;19.90;55.50;;;;;;5076074;28;20161;-87
2022/06/12 01:51:08;;;;;;;5.15;4.60;;;19.90;55.50;;;;;;5059852;28;20158;-88
2022/06/12 01:53:47;;;;;;;5.10;4.60;;;19.90;55.50;;;;;;5076168;28;20157;-87
2022/06/12 01:56:21;;;;;;;5.43;4.45;;;19.90;55.60;;;;;;5076036;28;20160;-87
2022/06/12 01:58:56;;;;;;;5.30;4.72;;;19.90;55.70;;;;;;5076108;28;20168;-88
2022/06/12 02:01:32;;;;;;;5.05;4.55;;;19.90;55.60;;;;;;5075662;28;20615;-87
2022/06/12 02:04:04;;;;;;;5.05;4.45;;;19.90;55.60;;;;;;5076005;28;20254;-88
2022/06/12 02:06:35;;;;;;;5.45;4.60;;;19.80;55.60;;;;;;5092604;28;20236;-87
2022/06/12 02:09:11;;;;;;;4.78;4.28;;;19.90;55.70;;;;;;5058821;28;20168;-87
2022/06/12 02:14:37;;;;;;;4.90;4.40;;;19.90;55.70;;;;;;5091051;28;20150;-88
2022/06/12 02:17:06;;;;;;;4.97;4.47;;;19.80;55.60;;;;;;5075840;28;20157;-88
2022/06/12 02:19:34;;;;;;;5.47;4.97;;;19.80;55.70;;;;;;5074883;28;20582;-88
2022/06/12 02:22:17;;;;;;;5.10;4.60;;;19.80;55.70;;;;;;5075062;28;20631;-88
2022/06/12 02:24:46;;;;;;;6.72;4.80;;;19.80;55.70;;;;;;5058397;28;20537;-88
2022/06/12 02:27:16;;;;;;;4.97;4.43;;;19.80;55.80;;;;;;5092354;28;20550;-88
2022/06/12 02:29:44;;;;;;;5.13;4.60;;;19.80;56.10;;;;;;5075331;28;20193;-87
2022/06/12 02:32:13;;;;;;;5.30;4.50;;;19.90;55.90;;;;;;5075100;28;20177;-87
2022/06/12 02:34:40;;;;;;;4.82;4.38;;;19.80;55.80;;;;;;5091933;28;20693;-87
2022/06/12 02:37:11;;;;;;;5.13;4.72;;;19.90;55.90;;;;;;5091898;28;20688;-87
2022/06/12 02:39:41;;;;;;;5.03;4.53;;;19.80;55.80;;;;;;5075409;28;20197;-88
2022/06/12 02:42:11;;;;;;;5.82;4.80;;;19.80;55.90;;;;;;5074974;28;20531;-88
2022/06/12 02:44:45;;;;;;;4.60;4.20;;;19.80;55.80;;;;;;5092053;28;20698;-88
2022/06/12 02:47:21;;;;;;;4.93;4.43;;;19.80;55.80;;;;;;5092322;28;20631;-88
2022/06/12 02:49:47;;;;;;;5.20;4.70;;;19.90;56.00;;;;;;5075398;28;20173;-88
2022/06/12 02:52:33;;;;;;;5.25;4.30;;;19.80;55.80;;;;;;5091052;28;20630;-88
2022/06/12 02:55:09;;;;;;;5.07;4.55;;;19.80;55.90;;;;;;5058088;28;20648;-88
2022/06/12 02:57:42;;;;;;;5.10;4.60;;;19.80;55.90;;;;;;5092365;28;20149;-88
2022/06/12 03:00:28;;;;;;;4.80;4.30;;;19.80;56.00;;;;;;5091797;28;20185;-88
2022/06/12 03:03:08;;;;;;;4.88;4.47;;;19.80;56.00;;;;;;5075522;28;20529;-88
2022/06/12 03:05:37;;;;;;;4.90;4.40;;;19.80;56.00;;;;;;5074256;28;20153;-88
2022/06/12 03:08:06;;;;;;;5.95;4.43;;;19.80;56.00;;;;;;5074800;28;20577;-88
2022/06/12 03:10:36;;;;;;;5.38;4.30;;;19.70;55.90;;;;;;5091289;28;20185;-88
2022/06/12 03:13:03;;;;;;;5.22;4.72;;;19.80;56.00;;;;;;5074509;28;20193;-88
2022/06/12 03:15:48;;;;;;;4.95;4.40;;;19.80;56.00;;;;;;5074377;28;20162;-88
2022/06/12 03:18:18;;;;;;;5.10;4.60;;;19.70;56.00;;;;;;5076347;28;20204;-88
2022/06/12 03:21:07;;;;;;;5.03;4.53;;;19.80;56.70;;;;;;5074201;28;20571;-88
2022/06/12 03:24:02;;;;;;;4.90;4.40;;;19.80;56.00;;;;;;5074076;28;20241;-88
2022/06/12 03:26:38;;;;;;;5.13;4.60;;;19.80;56.10;;;;;;5073919;28;20178;-88
2022/06/12 03:29:19;;;;;;;4.57;4.18;;;19.80;56.10;;;;;;5074676;28;20157;-88
2022/06/12 03:31:52;;;;;;;4.95;4.43;;;19.80;56.10;;;;;;5059135;28;20542;-88
2022/06/12 03:34:25;;;;;;;4.65;4.25;;;19.80;56.10;;;;;;5074767;28;20154;-88
2022/06/12 03:37:04;;;;;;;4.90;4.40;;;19.70;56.10;;;;;;5074595;28;20177;-88
2022/06/12 03:39:43;;;;;;;5.15;4.57;;;19.70;56.20;;;;;;5090837;28;20299;-88
2022/06/12 03:42:21;;;;;;;5.28;4.65;;;19.80;56.10;;;;;;5058470;28;20161;-88
2022/06/12 03:44:59;;;;;;;5.20;4.60;;;19.80;56.10;;;;;;5073808;28;20846;-87
2022/06/12 03:47:29;;;;;;;4.65;4.25;;;19.70;56.10;;;;;;5073667;28;20184;-88
2022/06/12 03:50:20;;;;;;;5.07;4.57;;;19.80;56.20;;;;;;5056870;28;20161;-88
2022/06/12 03:52:55;;;;;;;5.07;4.57;;;19.80;56.20;;;;;;5073590;28;20161;-88
2022/06/12 03:57:50;;;;;;;4.88;4.35;;;19.70;56.10;;;;;;5073871;28;20164;-88
2022/06/12 03:58:17;;;;;;;4.95;4.53;;;19.70;56.20;;;;;;5088125;28;20166;-88
2022/06/12 04:00:44;;;;;;;4.55;4.13;;;19.70;56.20;;;;;;5073611;28;20203;-88
2022/06/12 04:03:22;;;;;;;5.57;4.82;;;19.70;56.20;;;;;;5089861;28;20146;-88
2022/06/12 04:05:52;;;;;;;5.13;4.53;;;19.80;56.20;;;;;;5091196;28;20210;-88
2022/06/12 04:08:21;;;;;;;4.45;4.05;;;19.80;56.20;;;;;;5090411;28;20571;-88
2022/06/12 04:10:47;;;;;;;5.25;4.68;;;19.80;56.20;;;;;;5073301;28;20313;-88
2022/06/12 04:13:14;;;;;;;5.32;4.57;;;19.80;56.20;;;;;;5072984;28;20620;-88
2022/06/12 04:15:56;;;;;;;4.93;4.40;;;19.80;56.20;;;;;;5073252;28;20149;-88
2022/06/12 04:18:24;;;;;;;4.90;4.47;;;19.80;56.20;;;;;;5057846;28;20208;-88
2022/06/12 04:21:11;;;;;;;5.05;4.22;;;19.70;56.20;;;;;;5089694;28;20213;-88
2022/06/12 04:23:46;;;;;;;4.85;4.45;;;19.80;56.20;;;;;;5059326;28;20165;-88
2022/06/12 04:26:22;;;;;;;4.90;4.40;;;19.80;56.20;;;;;;5073433;28;20215;-88
2022/06/12 04:28:59;;;;;;;4.90;4.40;;;19.80;56.20;;;;;;5074134;28;20168;-88
2022/06/12 04:31:24;;;;;;;4.78;4.28;;;19.80;56.10;;;;;;5073211;28;20211;-88
2022/06/12 04:34:07;;;;;;;4.50;4.10;;;19.80;56.10;;;;;;5072544;28;20189;-88
2022/06/12 04:36:36;;;;;;;4.82;4.35;;;19.80;56.20;;;;;;5072721;28;20153;-89
2022/06/12 04:39:09;;;;;;;4.40;4.00;;;19.80;56.20;;;;;;5076884;28;20161;-89
2022/06/12 04:41:44;;;;;;;4.38;3.97;;;19.80;56.20;;;;;;5037548;28;20568;-88
2022/06/12 04:44:10;;;;;;;5.00;4.20;;;19.80;56.40;;;;;;5004904;28;20181;-87
2022/06/12 04:46:46;;;;;;;4.75;4.35;;;19.80;56.30;;;;;;5021240;28;20158;-89
2022/06/12 04:49:14;;;;;;;4.75;4.00;;;19.80;56.30;;;;;;5039446;28;20182;-88
2022/06/12 04:51:40;;;;;;;4.97;4.47;;;19.70;56.30;;;;;;5000363;28;20189;-87
2022/06/12 04:55:03;;;;;;;5.32;4.30;;;19.80;56.30;;;;;;5017282;28;20573;-88
2022/06/12 04:57:29;;;;;;;5.05;4.55;;;19.80;56.30;;;;;;5022779;28;20245;-88
2022/06/12 04:59:55;;;;;;;5.32;4.32;;;19.80;56.30;;;;;;5001157;28;20189;-87
2022/06/12 05:02:21;;;;;;;4.85;4.32;;;19.80;56.20;;;;;;5017396;28;20569;-88
2022/06/12 05:04:48;;;;;;;4.45;4.05;;;19.80;56.30;;;;;;5033911;28;20154;-87
2022/06/12 05:07:14;;;;;;;5.10;4.60;;;19.90;56.20;;;;;;5018160;28;20159;-88
2022/06/12 05:09:40;;;;;;;4.35;3.95;;;19.90;56.20;;;;;;5034605;28;20189;-89
2022/06/12 05:12:06;;;;;;;4.53;4.13;;;19.90;56.10;;;;;;5018466;28;20154;-89
2022/06/12 05:14:32;;;;;;;4.43;4.03;;;20.00;56.10;;;;;;5018511;28;20169;-89
2022/06/12 05:17:03;;;;;;;5.20;4.35;;;20.00;56.10;;;;;;5002049;28;20178;-89
2022/06/12 05:19:31;;;;;;;4.78;4.28;;;20.00;56.00;;;;;;5018410;28;20316;-87
2022/06/12 05:21:57;;;;;;;4.30;3.90;;;19.90;56.10;;;;;;5018175;28;20177;-87
2022/06/12 05:24:23;;;;;;;5.45;4.20;;;19.90;56.10;;;;;;5003634;28;20166;-87
2022/06/12 05:26:49;;;;;;;4.40;4.00;;;20.00;56.00;;;;;;5071999;28;20236;-87
2022/06/12 05:29:21;;;;;;;4.72;4.32;;;20.00;56.00;;;;;;5072121;28;20261;-87
2022/06/12 05:31:46;;;;;;;5.00;4.50;;;19.90;56.00;;;;;;5089521;28;20178;-88
2022/06/12 05:34:13;;;;;;;5.85;4.20;;;20.00;55.90;;;;;;5071236;28;20189;-87
2022/06/12 05:36:39;;;;;;;5.47;4.35;;;20.00;56.30;;;;;;5069830;28;20180;-87
2022/06/12 05:39:04;;;;;;;5.82;4.50;;;20.10;56.70;;;;;;5087417;28;20161;-86
2022/06/12 05:41:30;;;;;;;4.30;3.90;;;20.10;56.30;;;;;;5070546;28;20152;-86
2022/06/12 05:43:56;;;;;;;4.65;4.13;;;20.10;56.60;;;;;;5070813;28;20180;-87
2022/06/12 05:54:08;;;;;;;5.05;4.35;;;20.20;56.00;;;;;;5330477;22;20229;-85
2022/06/12 05:56:33;;;;;;;4.95;4.30;;;20.10;56.00;;;;;;4999268;28;20539;-85
2022/06/12 05:58:59;;;;;;;4.38;3.97;;;20.10;56.00;;;;;;4999116;28;20151;-85
2022/06/12 06:01:25;;;;;;;4.47;4.00;;;20.10;56.00;;;;;;4999296;28;20191;-85
2022/06/12 06:03:51;;;;;;;5.18;4.28;;;20.20;55.70;;;;;;4999258;28;20620;-85
2022/06/12 06:06:20;;;;;;;5.50;4.57;;;20.10;56.00;;;;;;4999849;28;20159;-85
2022/06/12 06:08:49;;;;;;;6.03;4.70;;;20.10;56.20;;;;;;4999911;28;20154;-86
2022/06/12 06:11:15;;;;;;;5.60;4.72;;;20.10;56.10;;;;;;5015926;28;20254;-86
2022/06/12 06:13:40;;;;;;;7.65;4.68;;;20.00;56.20;;;;;;5016125;28;20195;-86
2022/06/12 06:16:07;;;;;;;4.80;4.30;;;19.90;56.20;;;;;;5016057;28;20246;-85
2022/06/12 06:18:35;;;;;;;5.82;4.03;;;20.00;56.30;;;;;;4999737;28;20166;-85
2022/06/12 06:21:02;;;;;;;7.25;4.10;;;20.00;56.70;;;;;;4999674;28;20186;-86
2022/06/12 06:23:28;;;;;;;8.50;3.95;;;20.00;56.60;;;;;;5000239;28;20143;-86
2022/06/12 06:25:56;;;;;;;6.90;3.88;;;20.00;56.50;;;;;;5015710;28;20258;-85
2022/06/12 06:28:22;;;;;;;6.50;3.53;;;19.90;56.60;;;;;;5002197;28;20194;-86
2022/06/12 06:30:47;;;;;;;8.73;3.28;;;19.90;56.90;;;;;;5019068;28;20155;-85
2022/06/12 06:33:14;;;;;;;7.70;3.42;;;19.90;57.10;;;;;;5002826;28;20538;-85
2022/06/12 06:35:40;;;;;;;8.20;3.65;;;19.90;57.20;;;;;;5003506;28;20155;-86
2022/06/12 06:38:06;;;;;;;6.65;3.70;;;19.90;57.20;;;;;;5019496;28;20166;-86
2022/06/12 06:40:32;;;;;;;8.15;3.65;;;19.80;57.20;;;;;;5003064;28;20195;-85
2022/06/12 06:43:00;;;;;;;7.47;3.47;;;19.80;57.30;;;;;;5018777;28;20589;-85
2022/06/12 06:48:06;;;;;;;6.15;3.58;;;19.90;57.30;;;;;;5020576;28;20163;-86
2022/06/12 06:50:32;;;;;;;9.13;4.00;;;19.80;57.10;;;;;;4986054;28;20163;-86
2022/06/12 06:52:59;;;;;;;6.80;3.88;;;19.90;57.20;;;;;;4986507;28;20617;-85
2022/06/12 06:55:26;;;;;;;10.55;4.15;;;19.90;57.20;;;;;;5002058;28;20233;-85
2022/06/12 06:57:52;;;;;;;10.85;3.25;;;19.90;57.20;;;;;;5018640;28;20682;-84
2022/06/12 07:00:32;;;;;;;;;;;;;;;;;;;;;
2022/06/12 07:02:58;;;;;;;11.80;4.38;;;19.90;57.20;;;;;;5005819;28;20247;-85
2022/06/12 07:05:25;;;;;;;9.80;4.20;;;19.90;57.10;;;;;;5003784;28;20190;-85
2022/06/12 07:07:51;;;;;;;6.97;4.13;;;19.90;57.10;;;;;;5006069;28;20254;-85
2022/06/12 07:10:21;;;;;;;6.85;3.60;;;19.90;57.10;;;;;;5038348;28;20190;-86
2022/06/12 07:12:46;;;;;;;9.77;4.05;;;19.90;57.00;;;;;;5021585;28;20162;-86
2022/06/12 07:15:13;;;;;;;8.13;3.58;;;19.90;57.00;;;;;;5023492;28;20160;-87
2022/06/12 07:17:41;;;;;;;10.27;4.10;;;19.90;57.00;;;;;;5022821;28;20195;-86
2022/06/12 07:20:08;;;;;;;9.35;3.58;;;19.90;57.10;;;;;;5021492;28;20516;-86
2022/06/12 07:22:34;;;;;;;7.22;3.25;;;19.90;57.10;;;;;;5034548;28;20196;-85
2022/06/12 07:25:03;;;;;;;8.77;3.47;;;19.90;57.10;;;;;;5019707;28;20160;-84
2022/06/12 07:27:29;;;;;;;10.52;3.42;;;20.00;57.10;;;;;;5034065;28;20159;-85
2022/06/12 07:29:56;;;;;;;9.02;3.42;;;20.00;57.10;;;;;;5016101;28;20243;-86
2022/06/12 07:32:22;;;;;;;9.57;3.72;;;20.10;57.10;;;;;;5017445;28;20160;-85
2022/06/12 07:34:48;;;;;;;8.07;3.20;;;20.10;57.00;;;;;;5014910;28;20159;-85
2022/06/12 07:37:14;;;;;;;12.38;3.88;;;20.10;56.80;;;;;;5014668;28;20159;-86
2022/06/12 07:39:39;;;;;;;12.10;4.15;;;20.10;56.80;;;;;;5014482;28;20188;-85
2022/06/12 07:42:06;;;;;;;8.77;3.58;;;20.10;56.80;;;;;;4997345;28;20167;-84
2022/06/12 07:44:33;;;;;;;8.63;3.78;;;20.10;57.00;;;;;;5013930;28;20191;-84
2022/06/12 07:46:58;;;;;;;7.43;3.83;;;20.10;57.00;;;;;;4997515;28;20186;-84
2022/06/12 07:49:25;;;;;;;13.55;3.55;;;20.10;57.10;;;;;;5014295;28;20202;-86
2022/06/12 07:51:51;;;;;;;9.88;4.00;;;20.10;57.00;;;;;;4996572;28;20163;-85
2022/06/12 07:54:17;;;;;;;7.45;3.55;;;20.10;56.90;;;;;;5013623;28;20572;-85
2022/06/12 07:56:43;;;;;;;11.77;4.10;;;20.10;57.00;;;;;;5000186;28;20175;-84
2022/06/12 07:59:09;;;;;;;14.98;3.90;;;20.10;56.80;;;;;;5033708;28;20155;-84
2022/06/12 08:01:35;;;;;;;7.90;3.80;;;20.10;56.80;;;;;;5032899;28;20637;-83
2022/06/12 08:04:01;;;;;;;10.85;4.13;;;20.10;56.70;;;;;;5016052;28;20258;-85
2022/06/12 08:06:27;;;;;;;10.02;3.67;;;20.00;56.70;;;;;;5014760;28;20485;-85
2022/06/12 08:08:53;;;;;;;9.82;4.13;;;20.10;56.60;;;;;;5013077;28;20605;-84
2022/06/12 08:11:21;;;;;;;7.68;3.60;;;20.10;56.50;;;;;;4996495;28;20167;-86
2022/06/12 08:13:47;;;;;;;8.32;4.20;;;20.10;56.40;;;;;;5013514;28;20175;-86
2022/06/12 08:16:13;;;;;;;8.95;3.90;;;20.10;56.70;;;;;;5029346;28;20159;-86
2022/06/12 08:18:38;;;;;;;5.63;3.90;;;20.10;56.50;;;;;;5014656;28;20163;-85
2022/06/12 08:21:10;;;;;;;9.93;4.30;;;20.10;56.50;;;;;;4996774;28;20278;-85
2022/06/12 08:23:38;;;;;;;9.23;4.57;;;20.10;56.40;;;;;;5014101;28;20198;-85
2022/06/12 08:26:10;;;;;;;7.78;3.50;;;20.20;56.20;;;;;;5031263;28;20156;-84
2022/06/12 08:28:40;;;;;;;6.10;3.80;;;20.20;56.00;;;;;;4998143;28;20238;-85
2022/06/12 08:31:06;;;;;;;9.98;4.70;;;20.20;55.90;;;;;;5012773;28;20233;-85
2022/06/12 08:33:32;;;;;;;10.82;4.05;;;20.10;56.10;;;;;;5029497;28;20171;-85
2022/06/12 08:35:58;;;;;;;9.75;4.03;;;20.20;56.00;;;;;;4997123;28;20644;-85
2022/06/12 08:38:23;;;;;;;8.85;4.35;;;20.20;55.90;;;;;;5016843;28;20262;-85
2022/06/12 08:40:57;;;;;;;9.07;4.20;;;20.20;56.10;;;;;;5014823;28;20243;-85
2022/06/12 08:43:33;;;;;;;9.50;4.32;;;20.20;56.00;;;;;;5031942;28;20306;-86
2022/06/12 08:46:04;;;;;;;6.20;4.10;;;20.20;55.90;;;;;;5033045;28;20201;-85
2022/06/12 08:48:44;;;;;;;8.10;3.85;;;20.20;55.80;;;;;;5015726;28;20213;-84
2022/06/12 08:51:14;;;;;;;8.82;3.50;;;20.30;55.30;;;;;;5015608;28;20163;-85
2022/06/12 08:53:49;;;;;;;6.35;3.65;;;20.30;55.30;;;;;;5001516;28;20586;-85
2022/06/12 08:56:20;;;;;;;6.53;3.88;;;20.30;55.40;;;;;;4997685;28;20195;-85
2022/06/12 08:59:11;;;;;;;10.40;3.50;;;20.30;55.40;;;;;;4997790;28;20229;-86
2022/06/12 09:01:41;;;;;;;5.00;2.90;;;20.40;55.20;;;;;;4978954;28;20194;-86
2022/06/12 09:04:12;;;;;;;9.73;4.00;;;20.40;54.80;;;;;;4980323;28;20183;-87
2022/06/12 09:06:47;;;;;;;9.68;4.35;;;20.50;55.00;;;;;;4980915;28;20267;-86
2022/06/12 09:09:28;;;;;;;7.68;3.90;;;20.40;55.20;;;;;;4982084;28;20230;-87
2022/06/12 09:12:17;;;;;;;8.73;3.22;;;20.50;54.60;;;;;;4995342;28;20156;-86
2022/06/12 09:15:02;;;;;;;9.77;3.30;;;20.40;54.10;;;;;;5010362;28;20211;-86
2022/06/12 09:17:43;;;;;;;6.50;3.40;;;20.40;54.10;;;;;;4993083;28;20178;-86
2022/06/12 09:20:14;;;;;;;10.48;3.85;;;20.50;53.80;;;;;;5010006;28;20238;-85
2022/06/12 09:22:51;;;;;;;8.70;3.22;;;20.50;54.00;;;;;;4977212;28;20180;-86
2022/06/12 09:25:22;;;;;;;10.00;4.15;;;20.60;54.10;;;;;;4994616;28;20578;-87
2022/06/12 09:28:01;;;;;;;7.47;4.43;;;20.50;54.70;;;;;;4996998;28;20613;-86
2022/06/12 09:30:46;;;;;;;11.48;3.40;;;20.50;55.10;;;;;;4997129;28;20247;-85
2022/06/12 09:33:23;;;;;;;9.15;3.90;;;20.50;54.10;;;;;;4979279;28;20207;-84
2022/06/12 09:35:57;;;;;;;9.93;4.25;;;20.60;53.90;;;;;;4995710;28;20170;-85
2022/06/12 09:38:51;;;;;;;11.25;4.20;;;20.60;54.40;;;;;;4993261;28;20333;-86
2022/06/12 09:41:25;;;;;;;10.07;3.88;;;20.50;54.80;;;;;;4994298;28;20187;-85
2022/06/12 09:44:19;;;;;;;13.35;4.18;;;20.50;53.70;;;;;;4995452;28;20171;-86
2022/06/12 09:47:08;;;;;;;9.40;3.45;;;20.60;54.30;;;;;;4996537;28;20179;-87
2022/06/12 09:49:53;;;;;;;9.70;3.90;;;20.60;54.10;;;;;;4979460;28;20164;-87
2022/06/12 09:52:50;;;;;;;7.13;4.13;;;20.60;54.00;;;;;;4995223;28;20152;-85
2022/06/12 09:55:20;;;;;;;8.75;3.65;;;20.50;54.10;;;;;;4983889;28;20655;-84
2022/06/12 09:57:51;;;;;;;8.65;3.85;;;20.60;54.00;;;;;;4998266;28;20167;-85
2022/06/12 10:00:24;;;;;;;10.57;4.22;;;20.60;54.10;;;;;;4998838;28;20203;-88
2022/06/12 10:03:10;;;;;;;8.30;3.78;;;20.60;53.70;;;;;;5036481;28;20239;-85
2022/06/12 10:05:44;;;;;;;10.27;3.83;;;20.60;53.80;;;;;;5041209;28;20278;-84
2022/06/12 10:08:58;;;;;;;9.65;4.13;;;20.60;53.80;;;;;;5022033;28;20162;-83
2022/06/12 10:11:30;;;;;;;9.90;4.22;;;20.60;53.90;;;;;;5026554;28;20320;-85
2022/06/12 10:14:00;;;;;;;9.75;4.68;;;20.60;54.80;;;;;;5025031;28;20298;-85
2022/06/12 10:16:30;;;;;;;8.57;4.00;;;20.60;55.20;;;;;;5009874;28;20175;-84
2022/06/12 10:19:00;;;;;;;7.68;4.28;;;20.70;54.00;;;;;;5007723;28;20159;-86
2022/06/12 10:21:28;;;;;;;8.80;3.88;;;20.70;54.60;;;;;;5042575;28;20206;-85
2022/06/12 10:24:01;;;;;;;9.75;3.92;;;20.70;54.00;;;;;;5028421;28;20171;-85
2022/06/12 10:26:55;;;;;;;9.65;3.85;;;20.70;54.20;;;;;;5004438;28;20323;-83
2022/06/12 10:29:24;;;;;;;10.10;4.82;;;20.70;54.20;;;;;;5001694;28;20243;-87
2022/06/12 10:32:01;;;;;;;10.35;4.30;;;20.70;54.40;;;;;;5006063;28;20474;-84
2022/06/12 10:34:29;;;;;;;7.65;3.97;;;20.70;54.00;;;;;;5008330;28;20195;-85
2022/06/12 10:37:10;;;;;;;8.15;3.90;;;20.70;53.80;;;;;;5002097;28;20164;-84
2022/06/12 10:39:36;;;;;;;8.55;4.13;;;20.80;53.20;;;;;;5000840;28;20223;-87
2022/06/12 10:42:04;;;;;;;6.45;3.72;;;20.80;52.80;;;;;;5001626;28;20640;-87
2022/06/12 10:44:38;;;;;;;10.10;3.85;;;20.80;52.60;;;;;;5001013;28;20280;-84
2022/06/12 10:47:22;;;;;;;9.20;3.90;;;20.80;52.30;;;;;;5001261;28;20180;-90
2022/06/12 10:50:00;;;;;;;6.05;3.33;;;20.80;52.50;;;;;;5000764;28;20231;-87
2022/06/12 10:52:26;;;;;;;7.80;3.88;;;20.80;53.00;;;;;;5021083;28;20160;-84
2022/06/12 10:54:52;;;;;;;6.13;3.83;;;20.80;52.50;;;;;;5004764;28;20237;-87
2022/06/12 10:57:37;;;;;;;8.00;3.78;;;20.80;52.80;;;;;;5000585;28;20641;-85
2022/06/12 11:00:14;;;;;;;7.13;4.30;;;20.80;52.70;;;;;;5017630;28;20211;-83
2022/06/12 11:03:12;;;;;;;9.00;3.90;;;20.70;52.60;;;;;;5016782;28;20171;-85
2022/06/12 11:05:54;;;;;;;9.02;4.18;;;20.70;52.60;;;;;;5030456;28;20168;-88
2022/06/12 11:08:53;;;;;;;8.65;4.03;;;20.80;53.00;;;;;;5031887;28;20151;-86
2022/06/12 11:11:32;;;;;;;7.15;4.15;;;20.80;53.20;;;;;;5016553;28;20238;-87
2022/06/12 11:14:21;;;;;;;8.68;4.03;;;20.70;53.10;;;;;;5015866;28;20147;-88
2022/06/12 11:17:02;;;;;;;7.03;4.22;;;20.70;52.90;;;;;;5016941;28;20575;-86
2022/06/12 11:19:46;;;;;;;9.95;4.35;;;20.80;52.80;;;;;;5000424;28;20163;-87
2022/06/12 11:22:42;;;;;;;6.55;4.00;;;20.80;52.60;;;;;;5032005;28;20583;-87
2022/06/12 11:25:48;;;;;;;7.30;3.90;;;20.70;52.50;;;;;;5030791;28;20527;-87
2022/06/12 11:28:37;;;;;;;7.22;3.83;;;20.80;52.30;;;;;;5006293;28;20164;-86
2022/06/12 11:31:32;;;;;;;8.00;3.67;;;20.70;51.40;;;;;;5034653;28;20170;-88
2022/06/12 11:34:24;;;;;;;13.25;4.05;;;20.80;51.70;;;;;;5031938;28;20516;-87
2022/06/12 11:37:09;;;;;;;5.88;3.13;;;20.90;51.90;;;;;;5031730;28;20162;-87
2022/06/12 11:40:12;;;;;;;8.57;4.05;;;20.80;51.50;;;;;;5019361;28;20155;-86
2022/06/12 11:42:57;;;;;;;6.63;3.50;;;20.90;52.40;;;;;;5033799;28;20159;-86
2022/06/12 11:45:42;;;;;;;10.43;4.60;;;20.80;52.30;;;;;;5019236;28;20253;-87
2022/06/12 11:48:42;;;;;;;5.43;4.10;;;20.90;52.60;;;;;;5032309;28;20155;-85
2022/06/12 11:51:32;;;;;;;8.00;4.00;;;20.80;52.40;;;;;;5015836;28;20182;-87
2022/06/12 11:54:09;;;;;;;6.60;3.78;;;20.80;52.10;;;;;;5033421;28;20210;-86
2022/06/12 11:57:03;;;;;;;6.15;3.80;;;20.90;52.30;;;;;;5017561;28;20501;-86
2022/06/12 11:59:54;;;;;;;7.07;3.92;;;20.90;52.10;;;;;;5004841;28;20181;-86
2022/06/12 12:02:53;;;;;;;7.88;4.18;;;20.90;52.30;;;;;;5005522;28;20159;-86
2022/06/12 12:05:38;;;;;;;8.63;4.15;;;20.90;52.10;;;;;;5020371;28;20159;-87
2022/06/12 12:08:11;;;;;;;7.32;3.28;;;20.80;52.60;;;;;;5017296;28;20557;-85
2022/06/12 12:11:01;;;;;;;8.73;4.05;;;20.90;51.40;;;;;;4980009;28;20491;-85
2022/06/12 12:13:31;;;;;;;6.80;3.65;;;20.90;51.70;;;;;;4996683;28;20163;-85
2022/06/12 12:16:04;;;;;;;5.45;3.65;;;20.90;51.50;;;;;;4996207;28;20170;-84
2022/06/12 12:18:40;;;;;;;6.93;4.03;;;20.90;51.40;;;;;;5004456;28;20159;-86
2022/06/12 12:21:11;;;;;;;4.28;3.35;;;20.90;51.70;;;;;;5000860;28;20676;-86
2022/06/12 12:23:42;;;;;;;5.78;3.65;;;21.00;51.30;;;;;;4985345;28;20163;-85
2022/06/12 12:26:25;;;;;;;5.70;3.22;;;21.00;51.20;;;;;;4969723;28;20178;-86
2022/06/12 12:28:54;;;;;;;7.00;3.60;;;21.00;51.10;;;;;;5002609;28;20163;-85
2022/06/12 12:31:20;;;;;;;8.45;3.33;;;21.10;51.10;;;;;;5001565;28;20169;-85
2022/06/12 12:33:49;;;;;;;8.68;3.58;;;21.10;51.40;;;;;;5001073;28;20238;-86
2022/06/12 12:41:44;;;;;;;9.52;4.10;;;21.10;51.20;;;;;;5011506;28;20226;-85
2022/06/12 12:44:13;;;;;;;7.93;3.65;;;21.20;51.00;;;;;;5005907;28;20679;-85
2022/06/12 12:46:51;;;;;;;6.25;3.08;;;21.10;50.70;;;;;;4991572;28;20566;-86
2022/06/12 12:49:28;;;;;;;7.80;3.63;;;21.20;50.30;;;;;;5015793;28;20162;-85
2022/06/12 12:52:12;;;;;;;6.25;3.20;;;21.20;50.30;;;;;;5019540;28;20204;-85
2022/06/12 12:55:05;;;;;;;7.90;3.70;;;21.30;49.60;;;;;;5017676;28;20229;-85
2022/06/12 12:57:43;;;;;;;8.75;4.20;;;21.30;49.90;;;;;;5003854;28;20233;-85
2022/06/12 13:00:23;;;;;;;8.65;4.22;;;21.30;50.50;;;;;;5003602;28;20199;-84
2022/06/12 13:03:21;;;;;;;;;;;;;;;;;;;;;
2022/06/12 13:06:16;;;;;;;9.80;4.20;;;21.30;50.30;;;;;;5001091;28;20282;-83
2022/06/12 13:09:14;;;;;;;5.50;3.70;;;21.30;50.00;;;;;;5007629;28;20498;-85
2022/06/12 13:12:03;;;;;;;6.20;3.00;;;21.40;49.50;;;;;;5023839;28;20301;-86
2022/06/12 13:14:58;;;;;;;5.28;3.30;;;21.40;49.20;;;;;;5009133;28;20183;-85
2022/06/12 13:17:45;;;;;;;7.20;3.00;;;21.50;49.40;;;;;;5013593;28;20163;-85
2022/06/12 13:20:35;;;;;;;5.65;2.80;;;21.50;49.10;;;;;;5012559;28;20312;-85
2022/06/12 13:23:26;;;;;;;5.97;3.15;;;21.60;48.60;;;;;;5008793;28;20165;-85
2022/06/12 13:25:53;;;;;;;3.92;2.80;;;21.50;48.60;;;;;;5009558;28;20158;-84
2022/06/12 13:28:27;;;;;;;4.68;3.00;;;21.60;48.50;;;;;;5021311;28;20210;-86
2022/06/12 13:30:57;;;;;;;5.88;4.30;;;21.60;48.70;;;;;;5006192;28;20170;-87
2022/06/12 13:33:26;;;;;;;6.45;3.45;;;21.60;49.30;;;;;;5023062;28;20268;-85
2022/06/12 13:35:56;;;;;;;6.25;3.70;;;21.60;48.80;;;;;;5010389;28;20171;-86
2022/06/12 13:38:36;;;;;;;7.05;3.17;;;21.60;48.90;;;;;;5011018;28;20160;-86
2022/06/12 13:41:13;;;;;;;6.22;3.50;;;21.60;48.80;;;;;;5031955;28;20222;-87
2022/06/12 13:43:53;;;;;;;5.72;3.38;;;21.60;48.90;;;;;;5019009;28;20182;-88
2022/06/12 13:46:27;;;;;;;6.45;3.22;;;21.60;49.10;;;;;;5015137;28;20681;-86